Time;durP1;ratioP1;P1;durP2;ratioP2;P2;SDS_P1;SDS_P2;PMS_P1;PMS_P2;Temp;Humidity;BMP_temperature;BMP_pressure;BME280_temperature;BME280_humidity;BME280_pressure;Samples;Min_cycle;Max_cycle;Signal;HPM_P1;HPM_P2
2022/03/18 00:00:33;;;;;;;42.22;32.00;;;;;;;9.21;74.86;98180.34;4956695;28;20058;-78
2022/03/18 00:03:02;;;;;;;46.33;34.15;;;;;;;9.20;75.01;98176.91;4955471;28;20051;-77
2022/03/18 00:05:31;;;;;;;47.10;34.15;;;;;;;9.19;75.17;98182.25;4956108;29;20079;-77
2022/03/18 00:07:59;;;;;;;42.97;32.10;;;;;;;9.17;75.00;98179.78;4956198;28;20054;-77
2022/03/18 00:10:27;;;;;;;43.97;31.77;;;;;;;9.18;75.06;98183.19;4958285;28;20043;-78
2022/03/18 00:12:55;;;;;;;46.17;33.45;;;;;;;9.17;73.91;98182.38;4958415;28;20051;-78
2022/03/18 00:15:24;;;;;;;45.25;33.20;;;;;;;9.12;73.95;98186.34;4959356;28;20059;-78
2022/03/18 00:17:52;;;;;;;46.65;32.13;;;;;;;9.11;74.27;98189.91;4957754;28;20059;-78
2022/03/18 00:20:20;;;;;;;45.53;31.52;;;;;;;9.11;74.13;98188.13;4955955;28;20039;-80
2022/03/18 00:22:49;;;;;;;41.65;32.20;;;;;;;9.11;73.88;98184.69;4958703;28;20054;-77
2022/03/18 00:25:18;;;;;;;42.30;32.47;;;;;;;9.08;74.08;98188.41;4959351;28;20055;-78
2022/03/18 00:27:46;;;;;;;39.28;30.38;;;;;;;9.08;75.39;98191.00;4958372;28;20051;-78
2022/03/18 00:30:16;;;;;;;41.38;30.27;;;;;;;9.10;74.09;98188.28;4959043;28;20050;-78
2022/03/18 00:32:46;;;;;;;42.47;30.77;;;;;;;9.12;74.18;98188.94;4958384;28;20118;-77
2022/03/18 00:35:34;;;;;;;38.80;30.13;;;;;;;9.13;74.27;98180.19;4955771;28;20055;-76
2022/03/18 00:38:02;;;;;;;40.53;31.10;;;;;;;9.14;74.50;98187.03;4951808;28;20136;-77
2022/03/18 00:40:29;;;;;;;39.58;30.02;;;;;;;9.14;74.98;98185.25;4957691;28;20051;-77
2022/03/18 00:42:57;;;;;;;43.30;29.73;;;;;;;9.14;74.44;98195.69;4958466;28;20163;-77
2022/03/18 00:45:25;;;;;;;41.67;31.67;;;;;;;9.10;74.17;98198.69;4976426;28;20047;-79
2022/03/18 00:53:24;;;;;;;40.08;28.83;;;;;;;9.06;75.25;98196.34;4960703;28;20055;-78
2022/03/18 00:55:52;;;;;;;39.00;28.50;;;;;;;9.09;75.20;98195.25;4958590;28;20047;-80
2022/03/18 00:58:19;;;;;;;38.10;30.00;;;;;;;9.10;74.94;98196.09;4958446;28;20058;-80
2022/03/18 01:00:47;;;;;;;39.63;29.90;;;;;;;9.08;75.02;98191.00;4958546;28;20058;-77
2022/03/18 01:03:16;;;;;;;36.17;27.40;;;;;;;9.10;74.72;98198.69;4958128;28;20055;-77
2022/03/18 01:05:44;;;;;;;37.03;27.92;;;;;;;9.10;74.75;98198.69;4957343;28;20091;-79
2022/03/18 01:08:12;;;;;;;38.53;27.88;;;;;;;9.11;74.72;98201.13;4957523;28;20059;-77
2022/03/18 01:10:40;;;;;;;36.88;27.55;;;;;;;9.13;75.04;98198.41;4957189;28;20055;-78
2022/03/18 01:13:07;;;;;;;40.53;30.25;;;;;;;9.12;74.76;98192.38;4958565;28;20055;-76
2022/03/18 01:15:35;;;;;;;38.67;29.05;;;;;;;9.12;74.84;98194.13;4957440;28;20047;-79
2022/03/18 01:18:03;;;;;;;34.88;26.73;;;;;;;9.10;74.70;98185.66;4936978;29;20054;-81
2022/03/18 01:20:32;;;;;;;35.90;26.55;;;;;;;9.13;74.47;98195.81;4942998;29;20055;-80
2022/03/18 01:23:00;;;;;;;35.53;27.30;;;;;;;9.15;74.01;98191.28;4946598;29;20055;-77
2022/03/18 01:25:28;;;;;;;38.58;27.63;;;;;;;9.21;74.40;98188.16;4959665;28;20058;-77
2022/03/18 01:27:55;;;;;;;36.72;27.63;;;;;;;9.21;74.17;98191.56;4958824;28;20059;-78
2022/03/18 01:30:23;;;;;;;35.40;27.00;;;;;;;9.20;74.24;98186.50;4958780;28;20055;-75
2022/03/18 01:32:51;;;;;;;41.40;28.63;;;;;;;9.16;73.84;98188.56;4959424;28;20493;-75
2022/03/18 01:35:18;;;;;;;38.63;28.80;;;;;;;9.12;74.51;98186.34;4958351;28;20058;-79
2022/03/18 01:37:47;;;;;;;38.70;28.80;;;;;;;9.11;74.49;98192.50;4955559;28;20058;-81
2022/03/18 01:40:14;;;;;;;37.95;27.73;;;;;;;9.09;74.60;98187.44;4958881;28;20051;-79
2022/03/18 01:42:42;;;;;;;38.33;27.85;;;;;;;9.08;74.72;98191.81;4959764;28;20074;-80
2022/03/18 01:45:10;;;;;;;37.97;27.75;;;;;;;9.06;75.47;98193.72;4959296;28;20059;-78
2022/03/18 01:47:42;;;;;;;36.60;27.48;;;;;;;9.05;74.93;98192.09;4958438;28;20050;-77
2022/03/18 01:50:10;;;;;;;36.53;27.80;;;;;;;9.05;74.75;98197.31;4961196;28;20058;-77
2022/03/18 01:52:38;;;;;;;36.40;27.00;;;;;;;9.04;74.63;98190.44;4960515;28;20059;-77
2022/03/18 01:55:08;;;;;;;42.45;28.83;;;;;;;9.00;74.39;98199.47;4959939;28;20051;-79
2022/03/18 01:57:35;;;;;;;36.63;27.58;;;;;;;8.99;75.05;98189.19;4959527;28;20051;-77
2022/03/18 02:00:05;;;;;;;38.72;27.33;;;;;;;8.99;74.67;98192.63;4960000;28;20055;-79
2022/03/18 02:02:32;;;;;;;38.72;28.95;;;;;;;9.01;75.32;98197.69;4960416;28;20051;-77
2022/03/18 02:05:00;;;;;;;38.88;28.77;;;;;;;9.00;74.87;98202.06;4960388;28;20055;-81
2022/03/18 02:07:28;;;;;;;38.28;27.90;;;;;;;8.99;74.79;98208.25;4940558;29;20060;-79
2022/03/18 02:09:56;;;;;;;39.80;29.55;;;;;;;9.00;74.83;98204.66;4956137;29;20058;-80
2022/03/18 02:12:25;;;;;;;37.30;28.20;;;;;;;9.00;75.02;98214.25;4959849;28;20051;-80
2022/03/18 02:14:52;;;;;;;41.28;29.35;;;;;;;8.99;74.16;98208.25;4961460;28;20626;-78
2022/03/18 02:17:20;;;;;;;40.55;28.80;;;;;;;8.97;73.99;98215.34;4959655;28;20055;-80
2022/03/18 02:19:48;;;;;;;38.70;29.25;;;;;;;8.98;74.85;98213.56;4955192;28;20048;-78
2022/03/18 02:22:20;;;;;;;40.95;29.88;;;;;;;9.01;74.95;98216.75;4940986;29;20055;-78
2022/03/18 02:24:51;;;;;;;40.70;28.25;;;;;;;8.99;74.16;98221.25;4953501;29;20130;-77
2022/03/18 02:27:20;;;;;;;40.55;29.45;;;;;;;8.94;74.30;98220.81;4958298;28;20661;-76
2022/03/18 02:29:48;;;;;;;39.40;29.25;;;;;;;8.93;74.51;98224.38;4959989;28;20055;-80
2022/03/18 02:32:16;;;;;;;37.97;28.75;;;;;;;8.96;75.15;98226.69;4959125;28;20047;-78
2022/03/18 02:34:44;;;;;;;39.58;28.83;;;;;;;8.99;74.78;98216.03;4959080;28;20051;-77
2022/03/18 02:37:11;;;;;;;42.53;30.95;;;;;;;9.01;74.64;98221.13;4945124;28;20068;-79
2022/03/18 02:39:39;;;;;;;40.08;30.00;;;;;;;9.00;75.02;98220.28;4961613;29;20054;-79
2022/03/18 02:42:08;;;;;;;41.55;30.13;;;;;;;9.00;75.43;98222.88;4979767;28;20035;-80
2022/03/18 02:44:36;;;;;;;39.10;30.13;;;;;;;9.01;75.49;98224.53;4979355;28;20058;-80
2022/03/18 02:47:04;;;;;;;40.67;30.35;;;;;;;9.01;74.81;98224.53;4962300;28;20124;-77
2022/03/18 02:49:31;;;;;;;41.47;31.13;;;;;;;9.00;74.49;98230.69;4959772;28;20528;-79
2022/03/18 02:51:59;;;;;;;43.28;31.15;;;;;;;8.98;74.18;98222.19;4960116;28;20062;-80
2022/03/18 02:54:26;;;;;;;41.22;29.77;;;;;;;8.94;74.71;98227.78;4974413;28;20051;-80
2022/03/18 02:56:54;;;;;;;43.00;31.10;;;;;;;8.91;74.02;98223.69;4978623;28;20027;-80
2022/03/18 02:59:22;;;;;;;47.10;32.72;;;;;;;8.88;73.73;98221.34;4960722;28;20059;-78
2022/03/18 03:01:50;;;;;;;42.70;31.23;;;;;;;8.83;73.41;98224.34;4959673;28;20055;-80
2022/03/18 03:04:18;;;;;;;45.75;32.40;;;;;;;8.78;73.60;98236.09;4960763;28;20058;-79
2022/03/18 03:09:30;;;;;;;42.35;32.08;;;;;;;8.70;73.61;98238.50;4959579;28;20055;-78
2022/03/18 03:11:58;;;;;;;45.97;33.17;;;;;;;8.66;73.72;98243.97;4958862;28;20055;-79
2022/03/18 03:14:27;;;;;;;47.08;34.60;;;;;;;8.68;73.73;98248.22;4957029;28;20075;-79
2022/03/18 03:16:54;;;;;;;46.83;33.45;;;;;;;8.69;73.84;98247.28;4957011;28;20101;-77
2022/03/18 03:19:22;;;;;;;48.97;35.53;;;;;;;8.68;73.15;98250.81;4955021;28;20446;-77
2022/03/18 03:21:50;;;;;;;47.35;33.67;;;;;;;8.67;74.39;98255.19;4939792;29;20127;-78
2022/03/18 03:24:17;;;;;;;48.38;33.85;;;;;;;8.73;74.61;98259.09;4956692;28;20048;-78
2022/03/18 03:26:44;;;;;;;49.90;35.72;;;;;;;8.74;73.72;98261.53;4955089;28;20062;-77
2022/03/18 03:29:12;;;;;;;47.38;34.83;;;;;;;8.75;73.78;98263.19;4956493;28;20047;-79
2022/03/18 03:31:41;;;;;;;50.63;35.92;;;;;;;8.75;73.93;98271.00;4957303;28;20051;-78
2022/03/18 03:34:08;;;;;;;48.33;35.88;;;;;;;8.78;73.54;98269.91;4956791;28;20058;-78
2022/03/18 03:36:36;;;;;;;48.65;33.67;;;;;;;8.79;73.97;98274.16;4945686;28;20537;-77
2022/03/18 03:39:03;;;;;;;51.17;35.65;;;;;;;8.84;74.66;98272.00;4944333;29;20047;-78
2022/03/18 03:41:31;;;;;;;51.33;37.55;;;;;;;8.82;72.97;98279.13;4958188;28;20700;-78
2022/03/18 03:43:58;;;;;;;55.85;38.30;;;;;;;8.77;73.23;98276.91;4958185;28;20532;-81
2022/03/18 03:46:26;;;;;;;50.03;33.92;;;;;;;8.75;73.90;98272.78;4954684;28;20047;-77
2022/03/18 03:48:55;;;;;;;52.13;35.72;;;;;;;8.72;73.88;98273.03;4958001;28;20138;-81
2022/03/18 03:51:22;;;;;;;50.95;37.05;;;;;;;8.73;74.39;98279.91;4958065;28;20514;-77
2022/03/18 03:53:50;;;;;;;50.35;34.97;;;;;;;8.75;74.35;98284.00;4960674;28;20414;-78
2022/03/18 03:56:17;;;;;;;50.25;35.45;;;;;;;8.80;74.93;98281.03;4977047;28;20115;-78
2022/03/18 03:58:45;;;;;;;52.65;35.53;;;;;;;8.84;74.14;98285.84;4974720;28;20043;-80
2022/03/18 04:01:13;;;;;;;47.25;33.45;;;;;;;8.85;73.95;98282.28;4961406;28;20054;-81
2022/03/18 04:03:40;;;;;;;49.28;34.92;;;;;;;8.88;74.02;98289.00;4959250;28;20065;-78
2022/03/18 04:06:09;;;;;;;47.35;33.38;;;;;;;8.91;73.80;98293.13;4957707;28;20051;-81
2022/03/18 04:08:37;;;;;;;47.17;33.08;;;;;;;8.92;73.74;98294.75;4957779;28;20059;-78
2022/03/18 04:11:04;;;;;;;48.08;33.25;;;;;;;8.90;72.61;98302.72;4957400;28;20051;-79
2022/03/18 04:13:32;;;;;;;50.05;33.75;;;;;;;8.84;71.93;98298.03;4957774;28;20081;-80
2022/03/18 04:15:59;;;;;;;49.72;34.03;;;;;;;8.72;71.87;98305.06;4957757;28;20047;-79
2022/03/18 04:18:27;;;;;;;48.92;32.85;;;;;;;8.64;71.76;98303.13;4957964;28;20063;-79
2022/03/18 04:20:55;;;;;;;48.22;33.03;;;;;;;8.60;71.93;98306.09;4945554;28;20047;-79
2022/03/18 04:23:24;;;;;;;47.70;33.72;;;;;;;8.61;73.56;98310.34;4942736;29;20051;-82
2022/03/18 04:25:52;;;;;;;50.03;34.97;;;;;;;8.66;73.19;98306.41;4957629;28;20074;-79
2022/03/18 04:28:19;;;;;;;50.95;34.20;;;;;;;8.73;73.05;98311.13;4958087;28;20047;-80
2022/03/18 04:30:47;;;;;;;50.38;33.65;;;;;;;8.76;73.02;98316.88;4958003;28;20426;-80
2022/03/18 04:33:14;;;;;;;51.15;34.25;;;;;;;8.79;72.15;98321.00;4957793;28;20081;-79
2022/03/18 04:35:42;;;;;;;47.85;33.85;;;;;;;8.78;71.77;98314.97;4953823;28;20051;-78
2022/03/18 04:38:09;;;;;;;48.75;33.40;;;;;;;8.75;72.02;98315.22;4939768;29;20052;-77
2022/03/18 04:40:38;;;;;;;49.63;32.75;;;;;;;8.73;72.21;98324.94;4957917;28;20051;-79
2022/03/18 04:43:06;;;;;;;48.42;31.60;;;;;;;8.73;71.93;98326.72;4957831;28;20059;-81
2022/03/18 04:45:33;;;;;;;49.60;33.15;;;;;;;8.72;72.07;98327.66;4957943;28;20051;-79
2022/03/18 04:48:01;;;;;;;48.50;31.88;;;;;;;8.69;71.25;98331.34;4956643;28;20051;-80
2022/03/18 04:50:29;;;;;;;46.72;31.52;;;;;;;8.61;70.89;98342.38;4958626;28;20051;-79
2022/03/18 04:52:56;;;;;;;49.03;31.83;;;;;;;8.55;71.83;98344.66;4957342;28;20501;-78
2022/03/18 04:55:24;;;;;;;45.50;31.02;;;;;;;8.58;71.97;98349.63;4957240;28;20509;-78
2022/03/18 04:57:53;;;;;;;48.92;33.53;;;;;;;8.61;71.26;98350.19;4956640;28;20070;-81
2022/03/18 05:00:24;;;;;;;50.22;33.60;;;;;;;8.65;72.35;98355.97;4960936;28;20522;-78
2022/03/18 05:02:51;;;;;;;48.10;31.25;;;;;;;8.60;70.43;98345.94;4961505;28;20058;-78
2022/03/18 05:05:20;;;;;;;47.45;32.38;;;;;;;8.50;70.25;98352.84;4962785;28;20047;-81
2022/03/18 05:07:52;;;;;;;46.33;30.27;;;;;;;8.45;71.56;98349.78;4961345;28;20051;-79
2022/03/18 05:10:22;;;;;;;50.30;32.90;;;;;;;8.47;70.75;98355.69;4961294;28;20051;-81
2022/03/18 05:12:50;;;;;;;47.97;31.73;;;;;;;8.48;71.01;98359.94;4961316;28;20051;-83
2022/03/18 05:15:19;;;;;;;47.28;32.10;;;;;;;8.47;70.62;98368.72;4960540;28;20548;-78
2022/03/18 05:17:51;;;;;;;47.65;31.08;;;;;;;8.43;70.39;98357.72;4940574;29;20533;-80
2022/03/18 05:20:19;;;;;;;45.72;29.95;;;;;;;8.44;71.21;98364.59;4950680;29;20051;-80
2022/03/18 05:22:46;;;;;;;48.15;30.95;;;;;;;8.44;70.79;98368.97;4953004;29;20051;-79
2022/03/18 05:25:15;;;;;;;45.50;31.98;;;;;;;8.41;71.36;98364.81;4960317;28;20062;-77
2022/03/18 05:27:44;;;;;;;48.38;31.52;;;;;;;8.42;71.04;98379.47;4959745;28;20043;-78
2022/03/18 05:30:15;;;;;;;49.83;33.80;;;;;;;8.41;70.64;98379.59;4960383;28;20051;-80
2022/03/18 05:32:43;;;;;;;52.05;33.00;;;;;;;8.39;70.44;98381.47;4960583;28;20054;-77
2022/03/18 05:35:11;;;;;;;47.70;30.50;;;;;;;8.37;69.82;98380.75;4961440;28;20055;-78
2022/03/18 05:37:39;;;;;;;44.17;30.77;;;;;;;8.32;69.57;98386.34;4947574;28;20055;-78
2022/03/18 05:40:08;;;;;;;45.90;30.13;;;;;;;8.25;69.94;98396.41;4961520;28;20050;-77
2022/03/18 05:42:35;;;;;;;52.45;32.03;;;;;;;8.18;70.06;98397.84;4961215;28;20051;-80
2022/03/18 05:45:12;;;;;;;47.35;30.50;;;;;;;8.17;70.68;98396.19;4964933;28;20047;-87
2022/03/18 05:47:47;;;;;;;46.85;29.73;;;;;;;8.18;70.22;98395.25;4974482;28;20078;-89
2022/03/18 05:54:25;;;;;;;43.65;29.30;;;;;;;8.13;69.93;98412.16;4805133;29;20066;-87
2022/03/18 05:59:54;;;;;;;48.72;30.90;;;;;;;8.03;69.70;98407.69;4963130;28;20070;-90
2022/03/18 06:02:27;;;;;;;47.10;30.80;;;;;;;8.01;69.90;98421.75;4963301;28;20055;-86
2022/03/18 06:05:09;;;;;;;48.38;30.98;;;;;;;7.99;70.50;98423.66;4964658;28;20130;-90
2022/03/18 06:07:40;;;;;;;47.10;30.60;;;;;;;7.98;69.93;98427.16;4965424;28;20051;-89
2022/03/18 06:13:02;;;;;;;49.60;31.33;;;;;;;7.91;69.57;98433.81;4968482;28;20708;-86
2022/03/18 06:15:41;;;;;;;44.17;30.15;;;;;;;7.89;69.88;98436.50;4968781;28;20119;-92
2022/03/18 06:18:17;;;;;;;48.67;32.33;;;;;;;7.91;70.12;98433.81;4988943;23;20496;-78
2022/03/18 06:20:50;;;;;;;46.33;31.08;;;;;;;7.88;69.91;98436.66;4970241;28;20051;-77
2022/03/18 06:23:17;;;;;;;50.13;32.20;;;;;;;7.88;69.47;98449.66;4955373;28;20052;-78
2022/03/18 06:25:46;;;;;;;47.15;31.35;;;;;;;7.85;69.51;98450.72;4954021;28;20062;-75
2022/03/18 06:28:14;;;;;;;47.65;31.13;;;;;;;7.86;69.40;98454.13;4944585;28;20047;-78
2022/03/18 06:30:41;;;;;;;44.35;29.30;;;;;;;7.87;69.61;98458.38;4935279;29;20048;-77
2022/03/18 06:33:09;;;;;;;41.67;29.55;;;;;;;7.89;68.98;98457.28;4935233;29;20055;-77
2022/03/18 06:35:37;;;;;;;41.22;28.85;;;;;;;7.90;68.99;98463.34;4935161;29;20059;-77
2022/03/18 06:38:04;;;;;;;46.88;30.55;;;;;;;7.89;68.69;98466.88;4934892;29;20160;-78
2022/03/18 06:40:32;;;;;;;44.33;29.80;;;;;;;7.87;68.84;98464.41;4937051;29;20051;-77
2022/03/18 06:43:00;;;;;;;44.95;29.85;;;;;;;7.87;68.52;98489.53;4936922;29;20060;-77
2022/03/18 06:45:28;;;;;;;45.97;29.27;;;;;;;7.84;68.49;98486.25;4936499;29;20056;-77
2022/03/18 06:47:56;;;;;;;45.70;29.40;;;;;;;7.81;68.45;98491.69;4935792;29;20136;-77
2022/03/18 06:50:24;;;;;;;42.03;28.98;;;;;;;7.79;68.53;98490.97;4936745;29;20441;-76
2022/03/18 06:52:52;;;;;;;44.20;28.60;;;;;;;7.77;68.50;98494.63;4936711;29;20054;-77
2022/03/18 06:55:20;;;;;;;44.78;28.70;;;;;;;7.80;68.58;98494.38;4936738;29;20062;-77
2022/03/18 06:57:47;;;;;;;42.38;28.23;;;;;;;7.83;68.51;98492.41;4935998;29;20056;-76
2022/03/18 07:00:16;;;;;;;43.25;29.23;;;;;;;7.86;68.54;98498.31;4936330;29;20059;-78
2022/03/18 07:02:44;;;;;;;39.95;27.80;;;;;;;7.89;67.73;98492.84;4936545;29;20066;-77
2022/03/18 07:05:12;;;;;;;41.58;28.05;;;;;;;7.89;68.29;98485.06;4937526;29;20130;-79
2022/03/18 07:07:41;;;;;;;42.75;27.90;;;;;;;7.92;68.13;98492.63;4936140;29;20051;-79
2022/03/18 07:10:11;;;;;;;42.80;27.75;;;;;;;7.94;67.71;98495.94;4936038;29;20048;-79
2022/03/18 07:12:38;;;;;;;43.95;26.83;;;;;;;7.96;67.60;98500.06;4936250;29;20067;-79
2022/03/18 07:15:07;;;;;;;37.45;25.85;;;;;;;7.99;67.53;98504.19;4936313;29;20593;-77
2022/03/18 07:20:22;;;;;;;41.15;26.55;;;;;;;8.09;67.91;98497.34;4936184;29;20055;-78
2022/03/18 07:23:00;;;;;;;40.65;27.20;;;;;;;8.11;68.74;98499.81;4936339;29;20082;-78
2022/03/18 07:25:28;;;;;;;40.15;26.38;;;;;;;8.17;67.99;98512.34;4937219;29;20048;-78
2022/03/18 07:27:55;;;;;;;46.53;26.50;;;;;;;8.21;67.47;98508.56;4937608;29;20058;-78
2022/03/18 07:30:24;;;;;;;41.60;26.60;;;;;;;8.23;67.52;98507.50;4938451;29;20498;-78
2022/03/18 07:32:53;;;;;;;37.35;25.83;;;;;;;8.23;67.16;98511.88;4938091;29;20052;-77
2022/03/18 07:35:20;;;;;;;40.85;26.83;;;;;;;8.24;68.59;98514.34;4936964;29;20051;-78
2022/03/18 07:37:49;;;;;;;39.65;25.92;;;;;;;8.27;67.42;98513.28;4935661;29;20055;-78
2022/03/18 07:40:17;;;;;;;40.25;26.85;;;;;;;8.28;67.10;98514.94;4936838;29;20055;-78
2022/03/18 07:42:46;;;;;;;41.30;26.75;;;;;;;8.27;66.88;98520.28;4936454;29;20051;-78
2022/03/18 07:45:18;;;;;;;38.42;27.00;;;;;;;8.25;66.60;98521.19;4936266;29;20051;-78
2022/03/18 07:47:46;;;;;;;40.25;26.80;;;;;;;8.30;67.36;98514.81;4935668;29;20067;-77
2022/03/18 07:50:19;;;;;;;39.20;25.92;;;;;;;8.32;66.76;98524.16;4936107;29;20581;-78
2022/03/18 07:52:49;;;;;;;38.72;26.48;;;;;;;8.33;66.90;98527.56;4935845;29;20056;-76
2022/03/18 07:55:17;;;;;;;42.22;26.98;;;;;;;8.35;66.63;98525.66;4935745;29;20059;-78
2022/03/18 07:57:45;;;;;;;38.03;25.50;;;;;;;8.38;67.34;98533.25;4935331;29;20064;-78
2022/03/18 08:00:15;;;;;;;38.53;26.67;;;;;;;8.41;66.58;98527.81;4935781;29;20058;-78
2022/03/18 08:02:43;;;;;;;41.17;28.83;;;;;;;8.41;66.19;98530.44;4935928;29;20051;-77
2022/03/18 08:05:12;;;;;;;40.22;26.48;;;;;;;8.40;66.40;98526.16;4935893;29;20052;-77
2022/03/18 08:07:41;;;;;;;38.38;27.33;;;;;;;8.40;66.77;98528.75;4934764;29;20051;-77
2022/03/18 08:10:11;;;;;;;35.60;25.65;;;;;;;8.45;66.83;98537.88;4935414;29;20498;-78
2022/03/18 08:12:40;;;;;;;37.13;25.63;;;;;;;8.52;66.68;98538.22;4935759;29;20050;-77
2022/03/18 08:15:11;;;;;;;39.35;26.45;;;;;;;8.57;66.40;98536.09;4935571;29;20051;-77
2022/03/18 08:17:38;;;;;;;36.03;26.25;;;;;;;8.57;66.12;98543.03;4934655;29;20079;-78
2022/03/18 08:20:08;;;;;;;37.25;24.35;;;;;;;8.57;66.02;98543.03;4935305;29;20513;-76
2022/03/18 08:22:36;;;;;;;35.42;25.05;;;;;;;8.58;65.58;98542.94;4935401;29;20481;-80
2022/03/18 08:25:06;;;;;;;38.03;25.95;;;;;;;8.57;65.62;98541.28;4935326;29;20047;-79
2022/03/18 08:27:34;;;;;;;36.13;25.15;;;;;;;8.57;66.12;98543.91;4934417;29;20114;-79
2022/03/18 08:30:04;;;;;;;36.40;25.30;;;;;;;8.58;65.80;98549.91;4935015;29;20055;-79
2022/03/18 08:32:31;;;;;;;35.53;24.95;;;;;;;8.59;65.98;98544.59;4935037;29;20055;-78
2022/03/18 08:34:59;;;;;;;36.17;25.17;;;;;;;8.60;65.89;98550.63;4938311;29;20059;-78
2022/03/18 08:40:14;;;;;;;38.90;26.15;;;;;;;8.71;65.80;98562.78;4938813;29;20052;-77
2022/03/18 08:42:42;;;;;;;43.50;27.17;;;;;;;8.83;65.40;98556.59;4938765;29;20429;-78
2022/03/18 08:45:10;;;;;;;35.97;25.38;;;;;;;8.93;64.91;98562.72;4938937;29;20062;-78
2022/03/18 08:47:38;;;;;;;38.70;25.45;;;;;;;9.03;64.69;98563.66;4938140;29;20052;-80
2022/03/18 08:50:07;;;;;;;39.67;26.13;;;;;;;9.23;64.53;98569.03;4938986;29;20056;-80
2022/03/18 08:52:34;;;;;;;32.78;24.83;;;;;;;9.36;62.91;98574.88;4938872;29;20262;-80
2022/03/18 08:55:05;;;;;;;34.22;23.75;;;;;;;9.30;63.44;98574.56;4938836;29;20051;-78
2022/03/18 08:57:37;;;;;;;34.85;24.92;;;;;;;9.33;63.85;98580.31;4937938;29;20067;-77
2022/03/18 09:00:07;;;;;;;34.35;23.83;;;;;;;9.37;63.67;98576.50;4938939;29;20062;-78
2022/03/18 09:02:36;;;;;;;33.72;24.35;;;;;;;9.41;63.34;98580.53;4952936;29;20048;-77
2022/03/18 09:05:04;;;;;;;37.53;25.25;;;;;;;9.46;63.39;98574.94;4954559;29;20083;-77
2022/03/18 09:07:32;;;;;;;35.92;24.42;;;;;;;9.48;63.18;98570.44;4939442;29;20052;-78
2022/03/18 09:09:59;;;;;;;33.13;23.23;;;;;;;9.51;63.13;98569.34;4938837;29;20051;-78
2022/03/18 09:12:28;;;;;;;32.50;23.70;;;;;;;9.56;63.61;98570.63;4949460;29;20052;-79
2022/03/18 09:14:58;;;;;;;35.75;24.42;;;;;;;9.62;63.00;98575.34;4950344;29;20047;-77
2022/03/18 09:17:26;;;;;;;33.85;24.13;;;;;;;9.69;62.89;98575.66;4938290;29;20052;-77
2022/03/18 09:19:53;;;;;;;33.25;23.85;;;;;;;9.75;62.42;98577.75;4938783;29;20048;-78
2022/03/18 09:22:21;;;;;;;34.42;24.42;;;;;;;9.84;61.66;98582.19;4938509;29;20054;-78
2022/03/18 09:24:49;;;;;;;35.42;24.45;;;;;;;9.95;60.81;98589.13;4938458;29;20055;-78
2022/03/18 09:27:16;;;;;;;30.65;23.05;;;;;;;9.99;60.69;98589.66;4937534;29;20056;-78
2022/03/18 09:29:44;;;;;;;31.27;23.27;;;;;;;10.04;61.16;98582.31;4938270;29;20047;-77
2022/03/18 09:32:15;;;;;;;32.45;23.23;;;;;;;10.18;61.31;98591.56;4938180;29;20119;-77
2022/03/18 09:34:43;;;;;;;32.58;24.15;;;;;;;10.37;60.17;98596.91;4938702;29;20059;-77
2022/03/18 09:37:10;;;;;;;34.05;24.20;;;;;;;10.54;59.94;98585.00;4937082;29;20061;-77
2022/03/18 09:39:38;;;;;;;32.53;24.90;;;;;;;10.73;59.55;98581.63;4938046;29;20047;-78
2022/03/18 09:42:09;;;;;;;31.88;23.35;;;;;;;10.87;58.80;98593.47;4938346;29;20083;-78
2022/03/18 09:44:39;;;;;;;32.58;23.63;;;;;;;10.92;58.33;98599.94;4938308;29;20059;-77
2022/03/18 09:47:08;;;;;;;30.95;24.10;;;;;;;10.96;58.97;98602.28;4937341;29;20066;-78
2022/03/18 09:49:39;;;;;;;39.30;25.42;;;;;;;11.03;58.25;98601.59;4937669;29;20067;-78
2022/03/18 09:52:07;;;;;;;33.78;23.52;;;;;;;11.09;58.21;98608.09;4937847;29;20056;-78
2022/03/18 09:54:35;;;;;;;33.92;23.88;;;;;;;11.17;57.91;98612.63;4938031;29;20056;-77
2022/03/18 09:57:04;;;;;;;33.75;22.70;;;;;;;11.26;58.04;98611.78;4937029;29;20052;-78
2022/03/18 09:59:32;;;;;;;33.95;24.33;;;;;;;11.38;57.72;98620.34;4937596;29;20059;-78
2022/03/18 10:02:26;;;;;;;35.40;24.55;;;;;;;11.41;56.75;98626.09;4937542;29;20506;-78
2022/03/18 10:04:57;;;;;;;32.33;23.67;;;;;;;11.39;56.44;98614.97;4937498;29;20106;-78
2022/03/18 10:07:26;;;;;;;32.28;24.15;;;;;;;11.33;56.58;98621.56;4936963;29;20414;-78
2022/03/18 10:10:10;;;;;;;33.47;23.10;;;;;;;11.27;56.05;98613.47;4937550;29;20059;-80
2022/03/18 10:12:39;;;;;;;33.20;23.23;;;;;;;11.27;56.79;98622.13;4937186;29;20091;-80
2022/03/18 10:15:13;;;;;;;32.85;23.92;;;;;;;11.36;56.13;98619.66;4937478;29;20546;-78
2022/03/18 10:17:46;;;;;;;35.92;24.67;;;;;;;11.38;56.33;98613.31;4936839;29;20051;-78
2022/03/18 10:20:29;;;;;;;;;;;;;;;11.50;56.31;98620.06;4938255;29;20517;-77
2022/03/18 10:22:58;;;;;;;34.90;23.27;;;;;;;11.48;55.66;98627.22;4937546;29;19965;-78
2022/03/18 10:25:39;;;;;;;32.13;22.35;;;;;;;11.54;55.81;98621.44;4937233;29;20103;-79
2022/03/18 10:28:08;;;;;;;31.85;24.08;;;;;;;11.66;55.89;98621.31;4936326;29;20060;-78
2022/03/18 10:30:37;;;;;;;31.50;23.17;;;;;;;11.71;55.34;98619.09;4936781;29;20497;-78
2022/03/18 10:33:06;;;;;;;30.55;22.90;;;;;;;11.76;55.24;98616.88;4936913;29;20052;-78
2022/03/18 10:38:33;;;;;;;35.15;23.63;;;;;;;11.92;54.36;98611.94;4937178;29;20052;-78
2022/03/18 10:41:05;;;;;;;31.85;23.38;;;;;;;11.92;54.54;98627.63;4937078;29;20448;-78
2022/03/18 10:43:50;;;;;;;34.53;25.23;;;;;;;11.87;53.96;98618.50;4937254;29;20490;-78
2022/03/18 10:46:18;;;;;;;30.58;23.95;;;;;;;11.86;54.57;98616.88;4936234;29;20540;-78
2022/03/18 10:49:02;;;;;;;35.85;24.45;;;;;;;11.91;53.61;98614.69;4936859;29;20054;-79
2022/03/18 10:51:31;;;;;;;33.55;22.48;;;;;;;11.95;53.83;98619.47;4936743;29;20502;-78
2022/03/18 10:53:59;;;;;;;35.03;24.90;;;;;;;11.99;53.75;98617.41;4936618;29;20502;-78
2022/03/18 10:56:27;;;;;;;32.55;23.65;;;;;;;12.06;53.98;98622.91;4935549;29;20067;-78
2022/03/18 10:58:55;;;;;;;32.88;23.92;;;;;;;12.24;53.72;98615.16;4936783;29;20063;-79
2022/03/18 11:01:24;;;;;;;32.70;24.20;;;;;;;12.40;53.48;98619.75;4937041;29;20054;-81
2022/03/18 11:03:52;;;;;;;31.60;24.02;;;;;;;12.50;53.09;98617.94;4936121;29;20562;-81
2022/03/18 11:06:21;;;;;;;32.22;22.85;;;;;;;12.61;52.75;98622.16;4936291;29;20052;-78
2022/03/18 11:08:50;;;;;;;33.80;24.33;;;;;;;12.77;52.08;98623.19;4936443;29;20114;-78
2022/03/18 11:11:18;;;;;;;29.92;23.65;;;;;;;13.02;52.02;98623.47;4936061;29;20490;-78
2022/03/18 11:13:49;;;;;;;31.92;22.33;;;;;;;13.28;50.02;98630.63;4936591;29;20549;-78
2022/03/18 11:16:19;;;;;;;32.30;23.60;;;;;;;13.35;49.45;98614.16;4936283;29;20055;-79
2022/03/18 11:18:49;;;;;;;29.60;22.73;;;;;;;13.36;49.28;98609.75;4936262;29;20048;-81
2022/03/18 11:21:21;;;;;;;32.67;22.42;;;;;;;13.43;49.20;98612.59;4936101;29;20075;-81
2022/03/18 11:23:50;;;;;;;32.63;22.27;;;;;;;13.53;49.59;98618.56;4936086;29;20059;-80
2022/03/18 11:26:20;;;;;;;31.02;22.40;;;;;;;13.63;48.38;98608.84;4935447;29;20063;-81
2022/03/18 11:29:05;;;;;;;30.63;21.55;;;;;;;13.74;47.18;98620.88;4936190;29;20063;-81
2022/03/18 11:31:33;;;;;;;30.27;21.48;;;;;;;13.83;47.70;98616.53;4935612;29;20047;-81
2022/03/18 11:34:09;;;;;;;30.90;22.60;;;;;;;13.96;46.96;98617.75;4935710;29;20055;-79
2022/03/18 11:36:38;;;;;;;30.10;22.65;;;;;;;14.11;48.30;98611.97;4935503;29;20055;-78
2022/03/18 11:39:08;;;;;;;28.67;20.83;;;;;;;14.20;47.65;98617.09;4935981;29;20054;-78
2022/03/18 11:41:49;;;;;;;28.73;21.85;;;;;;;14.32;47.30;98620.28;4936085;29;20051;-78
2022/03/18 11:44:40;;;;;;;28.52;21.90;;;;;;;14.51;47.49;98613.16;4936039;29;20059;-78
2022/03/18 11:47:44;;;;;;;26.48;21.45;;;;;;;14.57;47.20;98617.81;4935403;29;20058;-79
2022/03/18 11:50:40;;;;;;;27.88;21.30;;;;;;;14.58;46.89;98620.28;4947757;29;20594;-79
2022/03/18 11:53:11;;;;;;;29.98;22.30;;;;;;;14.59;46.98;98621.09;4940682;29;20048;-79
2022/03/18 11:55:43;;;;;;;29.23;21.95;;;;;;;14.56;46.47;98622.25;4936597;29;20063;-78
2022/03/18 11:58:29;;;;;;;28.27;20.85;;;;;;;14.45;46.67;98622.47;4943220;29;20059;-78
2022/03/18 12:00:57;;;;;;;28.98;20.60;;;;;;;14.37;47.10;98615.38;4944918;29;20458;-78